Oxbow, Oregon
Current Conditions -  °F | °C
As of 11:51 PM on Friday 19 Dec 2014 (Local Time) from KMYL Reporting Station
Moderate Fog Moderate Fog  
Wind Chill: 30°   Ceiling: 200
Heat Index: 30°   Visibility: 0.25mi
Dew Point: 30°   Wind: 0mph
Humidity: 100%   Direction: NA
Pressure: 30"   Gusts: NA
Location:  44.97°N, 116.86°W
Report Text: KMYL 200751Z AUTO 00000KT 1/4SM FZFG VV002 M01/M01 A3000 RMK AO2 SLP184 T10111011
Loading
Personal Weather Stations






























Interactive Weather Map New forecast layout! Learn more

10-Day Weather Forecast

Advertisements
Track Severe Weather on mobile